Time;durP1;ratioP1;P1;durP2;ratioP2;P2;SDS_P1;SDS_P2;PMS_P1;PMS_P2;Temp;Humidity;BMP_temperature;BMP_pressure;BME280_temperature;BME280_humidity;BME280_pressure;Samples;Min_cycle;Max_cycle;Signal;HPM_P1;HPM_P2
2023/01/28 00:02:04;;;;;;;;;15.00;9.00;;;;;;;;119369;1195;25443;-61
2023/01/28 00:04:32;;;;;;;;;14.00;12.50;;;;;;;;119376;1194;25308;-61
2023/01/28 00:07:01;;;;;;;;;12.67;10.00;;;;;;;;119371;1194;25478;-61
2023/01/28 00:09:29;;;;;;;;;10.33;10.00;;;;;;;;119402;1194;25427;-61
2023/01/28 00:11:57;;;;;;;;;11.00;10.00;;;;;;;;119407;1195;24878;-61
2023/01/28 00:14:26;;;;;;;;;14.00;11.00;;;;;;;;119380;1194;25374;-61
2023/01/28 00:16:54;;;;;;;;;6.00;5.00;;;;;;;;119378;1187;26395;-61
2023/01/28 00:19:22;;;;;;;;;12.00;8.50;;;;;;;;119389;1185;26118;-61
2023/01/28 00:21:51;;;;;;;;;16.00;7.50;;;;;;;;119381;1195;25632;-61
2023/01/28 00:24:19;;;;;;;;;13.00;11.50;;;;;;;;119377;1194;25209;-61
2023/01/28 00:26:47;;;;;;;;;14.00;11.00;;;;;;;;119381;1194;25391;-61
2023/01/28 00:29:16;;;;;;;;;10.00;9.00;;;;;;;;119395;1194;25052;-61
2023/01/28 00:31:44;;;;;;;;;15.00;9.00;;;;;;;;119371;1193;25891;-61
2023/01/28 00:34:12;;;;;;;;;11.67;8.33;;;;;;;;119391;1194;25387;-61
2023/01/28 00:36:41;;;;;;;;;11.00;9.00;;;;;;;;119370;1195;25473;-61
2023/01/28 00:39:13;;;;;;;;;17.00;12.00;;;;;;;;119398;1194;25126;-61
2023/01/28 00:41:41;;;;;;;;;14.50;10.50;;;;;;;;119336;1187;24955;-62
2023/01/28 00:44:10;;;;;;;;;10.00;9.00;;;;;;;;119395;1194;25030;-62
2023/01/28 00:46:40;;;;;;;;;10.00;10.00;;;;;;;;119413;1194;25651;-60
2023/01/28 00:49:09;;;;;;;;;12.67;9.67;;;;;;;;119379;1194;24987;-60
2023/01/28 00:51:37;;;;;;;;;8.50;8.50;;;;;;;;119354;1195;25204;-60
2023/01/28 00:54:06;;;;;;;;;9.67;8.33;;;;;;;;119350;1187;25094;-60
2023/01/28 00:56:35;;;;;;;;;10.00;8.00;;;;;;;;119366;1195;24802;-61
2023/01/28 00:59:04;;;;;;;;;10.75;9.75;;;;;;;;119389;1195;24790;-60
2023/01/28 01:01:32;;;;;;;;;9.00;9.00;;;;;;;;119341;1195;24856;-60
2023/01/28 01:04:03;;;;;;;;;11.00;8.75;;;;;;;;119304;1195;24724;-61
2023/01/28 01:06:37;;;;;;;;;7.50;5.00;;;;;;;;119331;1195;25117;-61
2023/01/28 01:09:09;;;;;;;;;10.50;9.00;;;;;;;;119372;1187;25407;-61
2023/01/28 01:11:38;;;;;;;;;9.00;9.00;;;;;;;;119384;1194;25071;-61
2023/01/28 01:14:06;;;;;;;;;11.50;10.00;;;;;;;;119409;1194;24868;-61
2023/01/28 01:16:35;;;;;;;;;11.50;11.00;;;;;;;;119392;1194;25009;-60
2023/01/28 01:19:03;;;;;;;;;13.00;10.50;;;;;;;;119407;1194;25475;-60
2023/01/28 01:21:31;;;;;;;;;11.50;10.00;;;;;;;;119375;1185;25026;-61
2023/01/28 01:24:00;;;;;;;;;10.00;10.00;;;;;;;;119398;1195;24940;-60
2023/01/28 01:26:28;;;;;;;;;10.67;8.67;;;;;;;;119400;1187;25646;-61
2023/01/28 01:28:57;;;;;;;;;11.00;8.50;;;;;;;;119394;1195;25167;-60
2023/01/28 01:31:25;;;;;;;;;8.00;8.00;;;;;;;;119413;1195;25409;-60
2023/01/28 01:33:53;;;;;;;;;10.00;6.50;;;;;;;;119423;1187;25282;-61
2023/01/28 01:36:22;;;;;;;;;14.00;11.00;;;;;;;;119384;1194;25374;-61
2023/01/28 01:38:54;;;;;;;;;8.67;8.67;;;;;;;;119405;1185;25689;-60
2023/01/28 01:41:31;;;;;;;;;10.50;10.50;;;;;;;;119417;1194;25683;-60
2023/01/28 01:44:01;;;;;;;;;11.00;7.00;;;;;;;;119414;1191;24730;-60
2023/01/28 01:46:42;;;;;;;;;10.00;8.00;;;;;;;;119398;1186;25153;-60
2023/01/28 01:49:24;;;;;;;;;10.00;10.00;;;;;;;;119439;1191;25485;-60
2023/01/28 01:52:24;;;;;;;;;12.00;10.00;;;;;;;;119420;1195;24838;-60
2023/01/28 01:54:56;;;;;;;;;12.67;10.33;;;;;;;;119322;1194;25091;-60
2023/01/28 01:57:29;;;;;;;;;10.50;10.50;;;;;;;;119368;1195;25128;-60
2023/01/28 02:00:04;;;;;;;;;12.33;9.00;;;;;;;;119396;1187;25512;-61
2023/01/28 02:02:37;;;;;;;;;9.00;8.00;;;;;;;;119398;1195;25513;-60
2023/01/28 02:05:11;;;;;;;;;8.00;8.00;;;;;;;;119359;1192;26124;-61
2023/01/28 02:07:42;;;;;;;;;11.33;10.00;;;;;;;;119378;1185;25109;-60
2023/01/28 02:10:11;;;;;;;;;11.50;5.50;;;;;;;;119385;1194;25174;-61
2023/01/28 02:12:43;;;;;;;;;13.00;11.50;;;;;;;;119406;1187;26394;-61
2023/01/28 02:15:15;;;;;;;;;7.67;6.67;;;;;;;;119424;1195;25312;-61
2023/01/28 02:17:45;;;;;;;;;8.00;7.75;;;;;;;;119381;1194;26127;-61
2023/01/28 02:20:19;;;;;;;;;16.00;10.00;;;;;;;;119405;1195;25008;-61
2023/01/28 02:23:23;;;;;;;;;16.50;11.50;;;;;;;;119375;1187;25084;-61
2023/01/28 02:26:09;;;;;;;;;9.75;7.75;;;;;;;;119389;1194;24900;-61
2023/01/28 02:28:54;;;;;;;;;7.33;6.33;;;;;;;;119360;1187;24994;-61
2023/01/28 02:31:33;;;;;;;;;10.00;10.00;;;;;;;;119340;1195;24920;-61
2023/01/28 02:34:14;;;;;;;;;14.00;10.00;;;;;;;;119394;1195;25245;-61
2023/01/28 02:37:09;;;;;;;;;9.00;8.50;;;;;;;;119330;1187;24892;-60
2023/01/28 02:39:43;;;;;;;;;9.00;9.00;;;;;;;;119340;1194;24902;-61
2023/01/28 02:42:18;;;;;;;;;8.00;6.00;;;;;;;;119393;1193;25607;-61
2023/01/28 02:44:47;;;;;;;;;11.00;9.00;;;;;;;;119354;1195;25483;-61
2023/01/28 02:50:06;;;;;;;;;12.00;9.50;;;;;;;;119370;1195;25451;-60
2023/01/28 02:55:37;;;;;;;;;8.00;8.00;;;;;;;;119384;1194;25080;-61
2023/01/28 02:58:26;;;;;;;;;9.67;7.33;;;;;;;;119411;1195;25579;-61
2023/01/28 03:01:00;;;;;;;;;11.00;9.00;;;;;;;;119397;1192;25374;-60
2023/01/28 03:03:49;;;;;;;;;10.00;9.00;;;;;;;;119415;1185;25502;-60
2023/01/28 03:06:21;;;;;;;;;11.00;9.00;;;;;;;;119427;1195;24964;-61
2023/01/28 03:38:21;;;;;;;;;7.00;5.00;;;;;;;;119402;1194;25152;-60
2023/01/28 03:40:59;;;;;;;;;8.00;7.00;;;;;;;;119375;1185;25006;-61
2023/01/28 03:43:28;;;;;;;;;8.00;8.00;;;;;;;;119411;1190;25418;-61
2023/01/28 03:45:56;;;;;;;;;5.00;5.00;;;;;;;;119173;1194;25089;-61
2023/01/28 03:48:26;;;;;;;;;3.00;2.00;;;;;;;;119414;1194;25631;-61
2023/01/28 03:50:55;;;;;;;;;10.00;8.00;;;;;;;;119421;1195;25358;-60
2023/01/28 03:53:24;;;;;;;;;12.00;9.00;;;;;;;;119404;1186;25065;-61
2023/01/28 03:55:53;;;;;;;;;15.00;10.50;;;;;;;;119424;1194;25311;-60
2023/01/28 03:58:25;;;;;;;;;8.00;7.33;;;;;;;;119425;1194;24875;-61
2023/01/28 04:00:54;;;;;;;;;9.00;9.00;;;;;;;;119414;1187;25006;-61
2023/01/28 04:03:22;;;;;;;;;11.00;8.00;;;;;;;;119391;1194;25045;-61
2023/01/28 04:05:59;;;;;;;;;8.50;6.50;;;;;;;;119374;1193;25654;-60
2023/01/28 04:08:27;;;;;;;;;11.50;9.00;;;;;;;;119308;1195;25039;-61
2023/01/28 04:10:56;;;;;;;;;15.50;9.00;;;;;;;;119372;1195;24720;-61
2023/01/28 04:13:24;;;;;;;;;9.00;9.00;;;;;;;;119341;1192;25028;-60
2023/01/28 04:15:52;;;;;;;;;13.33;10.00;;;;;;;;119385;1195;25337;-60
2023/01/28 04:18:26;;;;;;;;;10.50;7.00;;;;;;;;119372;1195;25213;-60
2023/01/28 04:20:54;;;;;;;;;10.00;6.67;;;;;;;;119359;1192;25170;-61
2023/01/28 04:23:22;;;;;;;;;10.25;8.00;;;;;;;;119379;1195;25538;-60
2023/01/28 04:25:51;;;;;;;;;11.00;9.00;;;;;;;;119387;1187;25494;-60
2023/01/28 04:28:19;;;;;;;;;8.00;8.00;;;;;;;;119370;1191;26401;-60
2023/01/28 04:30:47;;;;;;;;;11.00;9.00;;;;;;;;119338;1195;25188;-60
2023/01/28 04:33:16;;;;;;;;;10.33;9.67;;;;;;;;119368;1187;25367;-61
2023/01/28 04:35:44;;;;;;;;;9.00;8.00;;;;;;;;119368;1185;25517;-60
2023/01/28 04:38:12;;;;;;;;;7.50;6.50;;;;;;;;119416;1195;24937;-61
2023/01/28 04:40:40;;;;;;;;;9.50;6.75;;;;;;;;119364;1195;24741;-60
2023/01/28 04:43:09;;;;;;;;;13.00;11.00;;;;;;;;119402;1185;24751;-60
2023/01/28 04:45:37;;;;;;;;;9.33;9.33;;;;;;;;119406;1185;25234;-60
2023/01/28 04:48:05;;;;;;;;;8.33;7.67;;;;;;;;119423;1194;24929;-60
2023/01/28 04:50:33;;;;;;;;;6.33;6.00;;;;;;;;119416;1194;25131;-60
2023/01/28 04:53:02;;;;;;;;;12.00;8.00;;;;;;;;119398;1185;25223;-61
2023/01/28 04:55:30;;;;;;;;;8.33;7.00;;;;;;;;119395;1195;25250;-61
2023/01/28 04:57:59;;;;;;;;;12.00;9.67;;;;;;;;119402;1187;25373;-60
2023/01/28 05:00:27;;;;;;;;;4.67;4.67;;;;;;;;119363;1194;25509;-60
2023/01/28 05:02:55;;;;;;;;;9.00;7.75;;;;;;;;119928;1190;24730;-61
2023/01/28 05:05:23;;;;;;;;;10.50;7.50;;;;;;;;119402;1193;25645;-60
2023/01/28 05:07:53;;;;;;;;;8.25;7.00;;;;;;;;119362;1186;24918;-60
2023/01/28 05:10:22;;;;;;;;;7.33;7.00;;;;;;;;119375;1195;24950;-61
2023/01/28 05:12:50;;;;;;;;;11.50;10.50;;;;;;;;119335;1192;26141;-60
2023/01/28 05:15:19;;;;;;;;;6.00;6.00;;;;;;;;119411;1194;25608;-60
2023/01/28 05:17:47;;;;;;;;;6.50;6.50;;;;;;;;119410;1195;25340;-61
2023/01/28 05:20:16;;;;;;;;;11.00;8.67;;;;;;;;119414;1187;25677;-60
2023/01/28 05:22:45;;;;;;;;;9.00;5.50;;;;;;;;119429;1185;25025;-61
2023/01/28 05:25:13;;;;;;;;;7.33;6.00;;;;;;;;119373;1185;25489;-61
2023/01/28 05:27:42;;;;;;;;;10.50;8.00;;;;;;;;119405;1186;25098;-60
2023/01/28 05:30:10;;;;;;;;;9.00;9.00;;;;;;;;119415;1195;25038;-61
2023/01/28 05:32:39;;;;;;;;;8.00;7.00;;;;;;;;119402;1187;25496;-60
2023/01/28 05:35:07;;;;;;;;;11.50;9.00;;;;;;;;119391;1185;25493;-61
2023/01/28 05:37:36;;;;;;;;;10.00;7.67;;;;;;;;119407;1185;25422;-61
2023/01/28 05:40:05;;;;;;;;;7.00;7.00;;;;;;;;119392;1185;24761;-60
2023/01/28 05:42:33;;;;;;;;;10.50;8.00;;;;;;;;119347;1187;25141;-60
2023/01/28 05:45:01;;;;;;;;;6.00;6.00;;;;;;;;119372;1195;25233;-60
2023/01/28 05:47:29;;;;;;;;;9.50;8.00;;;;;;;;119417;1194;25265;-60
2023/01/28 05:49:58;;;;;;;;;11.00;5.50;;;;;;;;119415;1195;25476;-60
2023/01/28 05:52:26;;;;;;;;;11.00;9.00;;;;;;;;119355;1186;24743;-61
2023/01/28 05:54:54;;;;;;;;;10.00;8.00;;;;;;;;119393;1187;25682;-61
2023/01/28 05:57:22;;;;;;;;;13.75;11.00;;;;;;;;119432;1194;24789;-61
2023/01/28 05:59:51;;;;;;;;;10.00;8.50;;;;;;;;119410;1194;25294;-61
2023/01/28 06:02:19;;;;;;;;;16.00;10.00;;;;;;;;119422;1187;25339;-61
2023/01/28 06:04:47;;;;;;;;;7.00;4.00;;;;;;;;119395;1194;25023;-61
2023/01/28 06:07:19;;;;;;;;;8.00;8.00;;;;;;;;119420;1194;25229;-61
2023/01/28 06:09:47;;;;;;;;;9.00;9.00;;;;;;;;119391;1187;25529;-61
2023/01/28 06:12:15;;;;;;;;;8.00;7.00;;;;;;;;119429;1185;25705;-61
2023/01/28 06:14:43;;;;;;;;;8.00;8.00;;;;;;;;119388;1195;25281;-61
2023/01/28 06:17:11;;;;;;;;;10.50;10.00;;;;;;;;119380;1194;24986;-61
2023/01/28 06:19:40;;;;;;;;;10.50;8.50;;;;;;;;119400;1194;24951;-61
2023/01/28 06:22:09;;;;;;;;;10.33;9.67;;;;;;;;119340;1187;25162;-61
2023/01/28 06:24:37;;;;;;;;;10.50;10.00;;;;;;;;119344;1193;25013;-61
2023/01/28 06:27:05;;;;;;;;;12.00;9.00;;;;;;;;119376;1185;25435;-61
2023/01/28 06:29:34;;;;;;;;;16.00;11.50;;;;;;;;119408;1194;24813;-61
2023/01/28 06:32:02;;;;;;;;;12.50;9.50;;;;;;;;119371;1191;25547;-61
2023/01/28 06:34:31;;;;;;;;;9.67;8.67;;;;;;;;119356;1185;24927;-61
2023/01/28 06:36:59;;;;;;;;;11.33;10.33;;;;;;;;119438;1194;25576;-61
2023/01/28 06:39:30;;;;;;;;;12.00;9.00;;;;;;;;119405;1194;25541;-61
2023/01/28 06:41:59;;;;;;;;;13.00;11.00;;;;;;;;119399;1194;25334;-61
2023/01/28 06:44:27;;;;;;;;;11.50;9.00;;;;;;;;119381;1195;25118;-61
2023/01/28 06:46:56;;;;;;;;;10.00;8.67;;;;;;;;119389;1192;25575;-61
2023/01/28 06:49:24;;;;;;;;;12.00;8.00;;;;;;;;119381;1187;26267;-61
2023/01/28 06:51:52;;;;;;;;;10.00;8.00;;;;;;;;119393;1187;25370;-60
2023/01/28 06:54:20;;;;;;;;;11.33;9.33;;;;;;;;119407;1194;25093;-61
2023/01/28 06:56:48;;;;;;;;;;;;;;;;;;119426;1194;25116;-61
2023/01/28 06:59:17;;;;;;;;;9.50;8.75;;;;;;;;119420;1194;24878;-61
2023/01/28 07:01:45;;;;;;;;;11.33;10.33;;;;;;;;119391;1185;25547;-61
2023/01/28 07:04:13;;;;;;;;;9.00;7.50;;;;;;;;119395;1187;24898;-61
2023/01/28 07:06:41;;;;;;;;;10.00;8.67;;;;;;;;119377;1193;25573;-61
2023/01/28 07:09:10;;;;;;;;;10.33;10.00;;;;;;;;119414;1194;25398;-61
2023/01/28 07:11:38;;;;;;;;;9.50;9.00;;;;;;;;119388;1185;25380;-61
2023/01/28 07:14:07;;;;;;;;;14.00;9.00;;;;;;;;119400;1184;25625;-61
2023/01/28 07:16:35;;;;;;;;;9.67;8.00;;;;;;;;119378;1194;24715;-60
2023/01/28 07:19:03;;;;;;;;;13.00;9.00;;;;;;;;119421;1185;25633;-61
2023/01/28 07:21:31;;;;;;;;;12.50;10.00;;;;;;;;119407;1194;24927;-61
2023/01/28 07:24:00;;;;;;;;;9.00;7.50;;;;;;;;119398;1195;25135;-61
2023/01/28 07:26:28;;;;;;;;;14.00;11.00;;;;;;;;119402;1194;25416;-61
2023/01/28 07:28:56;;;;;;;;;8.00;8.00;;;;;;;;119395;1185;24913;-61
2023/01/28 07:31:24;;;;;;;;;7.67;7.67;;;;;;;;119383;1194;25362;-61
2023/01/28 07:33:53;;;;;;;;;12.50;9.50;;;;;;;;119444;1185;24899;-61
2023/01/28 07:36:21;;;;;;;;;16.50;11.00;;;;;;;;119426;1194;25005;-61
2023/01/28 07:38:49;;;;;;;;;12.00;9.50;;;;;;;;119420;1194;25068;-61
2023/01/28 07:41:18;;;;;;;;;13.50;11.50;;;;;;;;119414;1194;25090;-61
2023/01/28 07:43:46;;;;;;;;;14.67;9.67;;;;;;;;119398;1194;24757;-60
2023/01/28 07:46:14;;;;;;;;;4.00;4.00;;;;;;;;119405;1194;25263;-61
2023/01/28 07:48:43;;;;;;;;;9.00;7.00;;;;;;;;119395;1194;25040;-61
2023/01/28 07:51:11;;;;;;;;;8.00;8.00;;;;;;;;119412;1194;25562;-60
2023/01/28 07:53:40;;;;;;;;;12.50;11.50;;;;;;;;119393;1186;24850;-61
2023/01/28 07:56:08;;;;;;;;;13.00;9.50;;;;;;;;119339;1187;24785;-61
2023/01/28 07:58:36;;;;;;;;;14.00;9.00;;;;;;;;119409;1185;25390;-61
2023/01/28 08:01:04;;;;;;;;;14.00;10.00;;;;;;;;119423;1194;25349;-61
2023/01/28 08:03:33;;;;;;;;;10.33;7.67;;;;;;;;119394;1194;26970;-61
2023/01/28 08:06:01;;;;;;;;;13.00;10.00;;;;;;;;119406;1185;25017;-61
2023/01/28 08:08:29;;;;;;;;;6.25;6.25;;;;;;;;119408;1182;25286;-60
2023/01/28 08:10:58;;;;;;;;;12.00;8.00;;;;;;;;119375;1191;25638;-60
2023/01/28 08:13:26;;;;;;;;;16.00;10.00;;;;;;;;119385;1194;24721;-60
2023/01/28 08:15:55;;;;;;;;;7.33;5.67;;;;;;;;119419;1194;25273;-61
2023/01/28 08:18:23;;;;;;;;;7.00;7.00;;;;;;;;119346;1195;25684;-60
2023/01/28 08:20:58;;;;;;;;;11.33;8.67;;;;;;;;119405;1190;25502;-60
2023/01/28 08:23:26;;;;;;;;;8.00;8.00;;;;;;;;119325;1195;25204;-60
2023/01/28 08:25:57;;;;;;;;;9.00;9.00;;;;;;;;119410;1194;25509;-60
2023/01/28 08:28:26;;;;;;;;;8.00;8.00;;;;;;;;119392;1194;25071;-60
2023/01/28 08:30:54;;;;;;;;;5.33;4.67;;;;;;;;119420;1194;25472;-60
2023/01/28 08:33:22;;;;;;;;;13.33;10.33;;;;;;;;119398;1194;24810;-60
2023/01/28 08:35:50;;;;;;;;;12.67;8.67;;;;;;;;119414;1194;25155;-60
2023/01/28 08:38:19;;;;;;;;;10.00;10.00;;;;;;;;119394;1194;25619;-60
2023/01/28 08:40:54;;;;;;;;;10.00;9.00;;;;;;;;119379;1185;24960;-60
2023/01/28 08:43:23;;;;;;;;;11.33;10.00;;;;;;;;119327;1187;24834;-60
2023/01/28 08:45:51;;;;;;;;;8.00;7.00;;;;;;;;119409;1190;24873;-61
2023/01/28 08:48:20;;;;;;;;;7.00;7.00;;;;;;;;119379;1185;25655;-60
2023/01/28 08:50:49;;;;;;;;;10.67;9.33;;;;;;;;119347;1194;25289;-60
2023/01/28 08:53:19;;;;;;;;;7.75;7.25;;;;;;;;119408;1185;24935;-61
2023/01/28 08:55:47;;;;;;;;;8.00;7.50;;;;;;;;119365;1195;24853;-61
2023/01/28 08:58:17;;;;;;;;;16.00;9.00;;;;;;;;119369;1194;24864;-61
2023/01/28 09:00:45;;;;;;;;;15.00;10.33;;;;;;;;119393;1193;25052;-61
2023/01/28 09:03:14;;;;;;;;;11.67;8.33;;;;;;;;119334;1194;25098;-60
2023/01/28 09:05:42;;;;;;;;;13.00;10.00;;;;;;;;119407;1194;25642;-60
2023/01/28 09:08:14;;;;;;;;;12.67;10.67;;;;;;;;119395;1195;24744;-61
2023/01/28 09:10:42;;;;;;;;;10.75;10.00;;;;;;;;119395;1195;25078;-60
2023/01/28 09:13:13;;;;;;;;;11.00;9.00;;;;;;;;119336;1187;25005;-60
2023/01/28 09:15:42;;;;;;;;;12.67;8.33;;;;;;;;119383;1187;25259;-60
2023/01/28 09:18:10;;;;;;;;;11.00;11.00;;;;;;;;119370;1194;24756;-61
2023/01/28 09:20:39;;;;;;;;;11.00;11.00;;;;;;;;119380;1185;24724;-61
2023/01/28 09:23:07;;;;;;;;;13.00;9.50;;;;;;;;119328;1194;25664;-69
2023/01/28 09:25:36;;;;;;;;;22.50;17.50;;;;;;;;119433;1194;25655;-81
2023/01/28 09:28:05;;;;;;;;;17.33;16.00;;;;;;;;119344;1192;26114;-81
2023/01/28 09:30:34;;;;;;;;;13.67;12.00;;;;;;;;119419;1194;24961;-73
2023/01/28 09:33:05;;;;;;;;;13.33;10.67;;;;;;;;119377;1193;24952;-72
2023/01/28 09:35:33;;;;;;;;;11.00;10.00;;;;;;;;119383;1195;25162;-68
2023/01/28 09:38:02;;;;;;;;;12.50;9.00;;;;;;;;119342;1188;25018;-67
2023/01/28 09:40:40;;;;;;;;;11.50;8.50;;;;;;;;119437;1194;24986;-69
2023/01/28 09:43:24;;;;;;;;;17.50;14.00;;;;;;;;119355;1186;25215;-71
2023/01/28 09:45:57;;;;;;;;;13.00;11.00;;;;;;;;119358;1195;25559;-69
2023/01/28 09:48:32;;;;;;;;;12.00;11.00;;;;;;;;119390;1186;25075;-70
2023/01/28 09:51:01;;;;;;;;;14.00;11.00;;;;;;;;119152;1188;24725;-69
2023/01/28 09:53:31;;;;;;;;;12.33;11.00;;;;;;;;119419;1194;25674;-70
2023/01/28 09:56:03;;;;;;;;;14.00;10.00;;;;;;;;119354;1187;25620;-70
2023/01/28 09:58:32;;;;;;;;;18.00;11.00;;;;;;;;119347;1195;26385;-76
2023/01/28 10:01:12;;;;;;;;;9.00;6.00;;;;;;;;119422;1194;24759;-68
2023/01/28 10:03:53;;;;;;;;;18.00;14.00;;;;;;;;119412;1191;25023;-69
2023/01/28 10:06:41;;;;;;;;;13.00;13.00;;;;;;;;119377;1187;25152;-63
2023/01/28 10:09:20;;;;;;;;;15.00;13.00;;;;;;;;119373;1191;25129;-66
2023/01/28 10:12:04;;;;;;;;;16.33;12.33;;;;;;;;119407;1187;24826;-65
2023/01/28 10:14:58;;;;;;;;;11.50;9.50;;;;;;;;119415;1195;24858;-66
2023/01/28 10:17:47;;;;;;;;;16.50;12.00;;;;;;;;119276;1194;24946;-65
2023/01/28 10:20:45;;;;;;;;;10.67;9.67;;;;;;;;119355;1195;25207;-69
2023/01/28 10:23:19;;;;;;;;;14.33;10.67;;;;;;;;119459;1190;25272;-79
2023/01/28 10:25:48;;;;;;;;;11.00;9.00;;;;;;;;119380;1187;24970;-78
2023/01/28 10:28:23;;;;;;;;;14.50;12.00;;;;;;;;119381;1195;25604;-66
2023/01/28 10:30:51;;;;;;;;;16.00;9.00;;;;;;;;119432;1185;25551;-71
2023/01/28 10:33:36;;;;;;;;;22.50;14.50;;;;;;;;119363;1195;25557;-61
2023/01/28 10:36:06;;;;;;;;;17.00;12.00;;;;;;;;119366;1195;25006;-60
2023/01/28 10:38:35;;;;;;;;;17.50;12.50;;;;;;;;119358;1195;24966;-60
2023/01/28 10:41:04;;;;;;;;;13.00;9.50;;;;;;;;119351;1195;24727;-60
2023/01/28 10:43:38;;;;;;;;;15.00;11.50;;;;;;;;119388;1192;25319;-66
2023/01/28 10:46:19;;;;;;;;;15.00;14.00;;;;;;;;119373;1194;24879;-61
2023/01/28 10:49:01;;;;;;;;;15.50;12.00;;;;;;;;119400;1194;25573;-61
2023/01/28 10:51:34;;;;;;;;;28.00;25.00;;;;;;;;119377;1187;24867;-59
2023/01/28 10:54:04;;;;;;;;;;;;;;;;;;119410;1194;25621;-59
2023/01/28 10:56:34;;;;;;;;;37.50;25.00;;;;;;;;119395;1185;24971;-60
2023/01/28 10:59:16;;;;;;;;;37.00;29.00;;;;;;;;119407;1194;24905;-59
2023/01/28 11:01:52;;;;;;;;;33.00;21.50;;;;;;;;119335;1195;25444;-59
2023/01/28 11:04:25;;;;;;;;;31.00;27.50;;;;;;;;119408;1195;24715;-59
2023/01/28 11:06:56;;;;;;;;;36.00;25.00;;;;;;;;119404;1195;24784;-59
2023/01/28 11:09:35;;;;;;;;;31.33;21.67;;;;;;;;119405;1190;24879;-60
2023/01/28 11:12:20;;;;;;;;;34.00;20.00;;;;;;;;119385;1195;25154;-59
2023/01/28 11:15:00;;;;;;;;;23.00;23.00;;;;;;;;119428;1195;25495;-60
2023/01/28 11:17:37;;;;;;;;;36.00;24.00;;;;;;;;119372;1195;25361;-60
2023/01/28 11:20:12;;;;;;;;;34.50;27.50;;;;;;;;119341;1195;24796;-60
2023/01/28 11:22:42;;;;;;;;;35.00;25.00;;;;;;;;119380;1190;25030;-60
2023/01/28 11:25:30;;;;;;;;;39.00;28.00;;;;;;;;119353;1195;26426;-60
2023/01/28 11:28:04;;;;;;;;;32.50;28.50;;;;;;;;119338;1195;25165;-60
2023/01/28 11:30:35;;;;;;;;;27.00;17.00;;;;;;;;119346;1192;24734;-60
2023/01/28 11:33:17;;;;;;;;;28.50;26.50;;;;;;;;119152;1195;25392;-59
2023/01/28 11:36:16;;;;;;;;;38.50;28.00;;;;;;;;119340;1195;25680;-58
2023/01/28 11:38:59;;;;;;;;;29.50;26.50;;;;;;;;119379;1195;24990;-58
2023/01/28 11:41:33;;;;;;;;;28.00;22.00;;;;;;;;119414;1195;25323;-57
2023/01/28 11:44:24;;;;;;;;;35.50;25.50;;;;;;;;119398;1191;25670;-58
2023/01/28 11:47:31;;;;;;;;;28.75;25.00;;;;;;;;119354;1195;25365;-59
2023/01/28 11:50:09;;;;;;;;;26.75;24.00;;;;;;;;119115;1182;25568;-60
2023/01/28 11:52:37;;;;;;;;;31.00;25.00;;;;;;;;119381;1195;25005;-58
2023/01/28 11:55:43;;;;;;;;;28.50;25.50;;;;;;;;119376;1195;25124;-59
2023/01/28 11:59:02;;;;;;;;;37.00;30.00;;;;;;;;119387;1195;25553;-58
2023/01/28 12:01:46;;;;;;;;;35.00;30.00;;;;;;;;119244;1195;25011;-58
2023/01/28 12:04:40;;;;;;;;;24.00;15.00;;;;;;;;119354;1188;24949;-58
2023/01/28 12:07:32;;;;;;;;;38.00;28.00;;;;;;;;119379;1187;25445;-60
2023/01/28 12:10:17;;;;;;;;;33.00;30.00;;;;;;;;119348;1195;25466;-60
2023/01/28 12:13:10;;;;;;;;;29.00;24.67;;;;;;;;119356;1192;25325;-60
2023/01/28 12:15:45;;;;;;;;;31.50;27.50;;;;;;;;119411;1195;25605;-61
2023/01/28 12:18:40;;;;;;;;;25.50;21.00;;;;;;;;119367;1187;25169;-61
2023/01/28 12:21:43;;;;;;;;;27.67;24.00;;;;;;;;119372;1194;24836;-62
2023/01/28 12:24:24;;;;;;;;;27.00;23.00;;;;;;;;119382;1195;25356;-63
2023/01/28 12:27:16;;;;;;;;;30.00;24.00;;;;;;;;119368;1194;24747;-59
2023/01/28 12:29:51;;;;;;;;;40.00;30.00;;;;;;;;119410;1195;25094;-58
2023/01/28 12:32:41;;;;;;;;;28.50;25.00;;;;;;;;119406;1190;25192;-62
2023/01/28 12:35:34;;;;;;;;;34.00;28.00;;;;;;;;119426;1186;25216;-61
2023/01/28 12:38:13;;;;;;;;;32.50;27.00;;;;;;;;119440;1195;25216;-61
2023/01/28 12:40:49;;;;;;;;;33.00;23.50;;;;;;;;119431;1185;25064;-62
2023/01/28 12:43:41;;;;;;;;;30.50;23.00;;;;;;;;119433;1195;24738;-64
2023/01/28 12:46:27;;;;;;;;;24.67;21.67;;;;;;;;119398;1185;25646;-62
2023/01/28 12:49:09;;;;;;;;;26.33;23.00;;;;;;;;119386;1194;25466;-64
2023/01/28 12:52:16;;;;;;;;;25.00;21.00;;;;;;;;119363;1195;25639;-61
2023/01/28 12:55:14;;;;;;;;;22.50;17.25;;;;;;;;119342;1195;25757;-62
2023/01/28 12:57:43;;;;;;;;;24.50;18.50;;;;;;;;119428;1195;25259;-62
2023/01/28 13:00:29;;;;;;;;;24.33;17.00;;;;;;;;119404;1187;25231;-62
2023/01/28 13:03:09;;;;;;;;;25.67;23.33;;;;;;;;119429;1194;25040;-60
2023/01/28 13:05:43;;;;;;;;;23.00;15.50;;;;;;;;119422;1185;24770;-65
2023/01/28 13:08:16;;;;;;;;;47.50;33.50;;;;;;;;119376;1194;24952;-61
2023/01/28 13:10:46;;;;;;;;;42.00;30.50;;;;;;;;119404;1186;25143;-60
2023/01/28 13:13:32;;;;;;;;;38.50;31.00;;;;;;;;119418;1186;25325;-60
2023/01/28 13:16:02;;;;;;;;;31.00;26.00;;;;;;;;119390;1186;25275;-59
2023/01/28 13:18:34;;;;;;;;;41.50;29.00;;;;;;;;119408;1194;25404;-61
2023/01/28 13:21:04;;;;;;;;;34.00;26.33;;;;;;;;119407;1194;24896;-60
2023/01/28 13:23:41;;;;;;;;;34.67;29.67;;;;;;;;119395;1187;25658;-60
2023/01/28 13:26:18;;;;;;;;;35.00;28.00;;;;;;;;119368;1187;25289;-59
2023/01/28 13:28:51;;;;;;;;;31.00;27.00;;;;;;;;119350;1195;25551;-62
2023/01/28 13:31:22;;;;;;;;;33.50;32.00;;;;;;;;119357;1195;24860;-60
2023/01/28 13:33:53;;;;;;;;;29.50;23.50;;;;;;;;119345;1195;25410;-59
2023/01/28 13:36:27;;;;;;;;;39.50;32.50;;;;;;;;119398;1195;25065;-62
2023/01/28 13:39:05;;;;;;;;;33.67;23.00;;;;;;;;119342;1194;24770;-60
2023/01/28 13:41:42;;;;;;;;;30.00;25.00;;;;;;;;119418;1194;25281;-67
2023/01/28 13:44:24;;;;;;;;;25.00;23.50;;;;;;;;119385;1194;25591;-59
2023/01/28 13:46:55;;;;;;;;;23.00;23.00;;;;;;;;119367;1195;25039;-60
2023/01/28 13:49:36;;;;;;;;;33.33;28.00;;;;;;;;119415;1195;25692;-60
2023/01/28 13:52:11;;;;;;;;;38.75;26.75;;;;;;;;119483;1190;24849;-60
2023/01/28 13:54:53;;;;;;;;;28.00;23.00;;;;;;;;119442;1191;25601;-60
2023/01/28 13:57:37;;;;;;;;;25.00;21.00;;;;;;;;119409;1190;25277;-61
2023/01/28 14:00:29;;;;;;;;;30.00;23.00;;;;;;;;119333;1195;24948;-61
2023/01/28 14:03:13;;;;;;;;;32.00;24.67;;;;;;;;119374;1186;24672;-62
2023/01/28 14:06:03;;;;;;;;;28.50;21.00;;;;;;;;119391;1194;25670;-58
2023/01/28 14:09:09;;;;;;;;;23.00;21.00;;;;;;;;119405;1194;25435;-60
2023/01/28 14:12:05;;;;;;;;;23.00;20.50;;;;;;;;119016;1197;25695;-60
2023/01/28 14:15:00;;;;;;;;;29.67;26.00;;;;;;;;119383;1194;24964;-59
2023/01/28 14:17:50;;;;;;;;;31.67;26.00;;;;;;;;119185;1195;25138;-60
2023/01/28 14:20:22;;;;;;;;;30.50;22.50;;;;;;;;119348;1182;24995;-59
2023/01/28 14:23:00;;;;;;;;;32.00;24.00;;;;;;;;119381;1186;25384;-59
2023/01/28 14:25:51;;;;;;;;;33.00;23.00;;;;;;;;119385;1190;25651;-59
2023/01/28 14:28:38;;;;;;;;;34.50;28.50;;;;;;;;119348;1195;25082;-59
2023/01/28 14:31:27;;;;;;;;;30.00;21.50;;;;;;;;119336;1195;25321;-59
2023/01/28 14:34:08;;;;;;;;;33.00;29.00;;;;;;;;119389;1190;25210;-60
2023/01/28 14:36:40;;;;;;;;;31.00;26.50;;;;;;;;119342;1195;25703;-59
2023/01/28 14:39:20;;;;;;;;;31.33;24.67;;;;;;;;119401;1195;25313;-59
2023/01/28 14:41:51;;;;;;;;;41.67;30.33;;;;;;;;119322;1194;24996;-59
2023/01/28 14:44:31;;;;;;;;;31.50;26.50;;;;;;;;119365;1195;24934;-59
2023/01/28 14:47:26;;;;;;;;;27.50;25.00;;;;;;;;119444;1185;25628;-59
2023/01/28 14:50:40;;;;;;;;;26.67;24.33;;;;;;;;119406;1194;24825;-59
2023/01/28 14:53:24;;;;;;;;;32.00;27.00;;;;;;;;119070;1196;25693;-58
2023/01/28 14:56:16;;;;;;;;;27.00;24.50;;;;;;;;119052;1189;25500;-59
2023/01/28 14:59:01;;;;;;;;;37.00;26.00;;;;;;;;119270;1195;24848;-59
2023/01/28 15:01:30;;;;;;;;;34.00;26.00;;;;;;;;119375;1187;25562;-59
2023/01/28 15:03:58;;;;;;;;;28.00;22.00;;;;;;;;119333;1195;25646;-59
2023/01/28 15:06:34;;;;;;;;;29.50;26.00;;;;;;;;119317;1195;24706;-59
2023/01/28 15:09:12;;;;;;;;;20.00;19.00;;;;;;;;119379;1195;24790;-59
2023/01/28 15:11:43;;;;;;;;;32.00;25.00;;;;;;;;119346;1195;25521;-58
2023/01/28 15:14:21;;;;;;;;;31.00;27.25;;;;;;;;119344;1193;24960;-59
2023/01/28 15:16:50;;;;;;;;;26.00;21.00;;;;;;;;119396;1194;25518;-58
2023/01/28 15:19:26;;;;;;;;;29.00;26.00;;;;;;;;119468;1185;24777;-58
2023/01/28 15:21:57;;;;;;;;;31.00;27.00;;;;;;;;119359;1195;24781;-58
2023/01/28 15:24:25;;;;;;;;;30.50;26.00;;;;;;;;119389;1187;24725;-58
2023/01/28 15:26:54;;;;;;;;;27.00;24.00;;;;;;;;119385;1194;24912;-58
2023/01/28 15:29:25;;;;;;;;;29.50;23.00;;;;;;;;119398;1185;25145;-58